sensor_id;sensor_type;location;lat;lon;timestamp;P1;durP1;ratioP1;P2;durP2;ratioP2
53287;SDS011;39172;45.550;12.072;2023-07-13T06:42:03;4.05;;;1.50;;
53287;SDS011;39172;45.550;12.072;2023-07-13T06:48:05;1.88;;;0.93;;
53287;SDS011;39172;45.550;12.072;2023-07-13T06:54:06;2.72;;;1.17;;
53287;SDS011;39172;45.550;12.072;2023-07-13T07:00:07;3.65;;;1.30;;
53287;SDS011;39172;45.550;12.072;2023-07-13T07:06:21;1.30;;;0.80;;
53287;SDS011;39172;45.550;12.072;2023-07-13T07:12:24;1.67;;;0.90;;
53287;SDS011;39172;45.550;12.072;2023-07-13T07:18:25;1.88;;;1.00;;
53287;SDS011;39172;45.550;12.072;2023-07-13T07:24:26;1.80;;;0.90;;
53287;SDS011;39172;45.550;12.072;2023-07-13T07:30:27;1.30;;;0.93;;
53287;SDS011;39172;45.550;12.072;2023-07-13T07:36:28;1.48;;;0.80;;
53287;SDS011;39172;45.550;12.072;2023-07-13T07:42:29;1.23;;;0.82;;
53287;SDS011;39172;45.550;12.072;2023-07-13T07:48:30;1.13;;;0.70;;
53287;SDS011;39172;45.550;12.072;2023-07-13T07:54:31;1.35;;;0.73;;
53287;SDS011;39172;45.550;12.072;2023-07-13T08:00:32;0.82;;;0.70;;
53287;SDS011;39172;45.550;12.072;2023-07-13T08:06:34;1.00;;;0.57;;
53287;SDS011;39172;45.550;12.072;2023-07-13T08:12:35;0.80;;;0.65;;
53287;SDS011;39172;45.550;12.072;2023-07-13T08:18:36;3.22;;;1.20;;
53287;SDS011;39172;45.550;12.072;2023-07-13T08:24:38;3.50;;;1.60;;
53287;SDS011;39172;45.550;12.072;2023-07-13T08:30:39;3.22;;;2.30;;
53287;SDS011;39172;45.550;12.072;2023-07-13T08:36:40;3.15;;;1.65;;
53287;SDS011;39172;45.550;12.072;2023-07-13T08:42:50;3.25;;;1.70;;
53287;SDS011;39172;45.550;12.072;2023-07-13T08:48:56;3.40;;;1.67;;
53287;SDS011;39172;45.550;12.072;2023-07-13T08:54:57;2.85;;;1.75;;
53287;SDS011;39172;45.550;12.072;2023-07-13T09:01:02;5.15;;;2.53;;
53287;SDS011;39172;45.550;12.072;2023-07-13T09:07:06;3.13;;;2.15;;
53287;SDS011;39172;45.550;12.072;2023-07-13T09:13:27;3.22;;;1.85;;
53287;SDS011;39172;45.550;12.072;2023-07-13T09:19:31;2.53;;;1.50;;
53287;SDS011;39172;45.550;12.072;2023-07-13T09:25:34;2.45;;;1.80;;
53287;SDS011;39172;45.550;12.072;2023-07-13T09:31:40;3.58;;;2.20;;
53287;SDS011;39172;45.550;12.072;2023-07-13T09:37:43;4.53;;;3.80;;
53287;SDS011;39172;45.550;12.072;2023-07-13T09:50:15;2.50;;;2.20;;
53287;SDS011;39172;45.550;12.072;2023-07-13T09:56:23;2.67;;;2.20;;
53287;SDS011;39172;45.550;12.072;2023-07-13T10:08:29;4.45;;;3.50;;
53287;SDS011;39172;45.550;12.072;2023-07-13T10:14:34;5.18;;;2.70;;
53287;SDS011;39172;45.550;12.072;2023-07-13T10:20:35;5.13;;;2.85;;
53287;SDS011;39172;45.550;12.072;2023-07-13T10:26:36;3.25;;;2.10;;
53287;SDS011;39172;45.550;12.072;2023-07-13T10:32:40;4.90;;;1.90;;
53287;SDS011;39172;45.550;12.072;2023-07-13T10:38:40;8.00;;;2.10;;
53287;SDS011;39172;45.550;12.072;2023-07-13T10:44:42;4.43;;;2.03;;
53287;SDS011;39172;45.550;12.072;2023-07-13T10:50:44;3.78;;;2.10;;
53287;SDS011;39172;45.550;12.072;2023-07-13T10:56:46;2.30;;;1.42;;
53287;SDS011;39172;45.550;12.072;2023-07-13T11:02:59;1.88;;;1.33;;
53287;SDS011;39172;45.550;12.072;2023-07-13T11:34:12;1.33;;;1.02;;
53287;SDS011;39172;45.550;12.072;2023-07-13T11:40:14;1.20;;;0.90;;
53287;SDS011;39172;45.550;12.072;2023-07-13T11:46:18;1.63;;;1.00;;
53287;SDS011;39172;45.550;12.072;2023-07-13T11:52:22;1.77;;;1.40;;
53287;SDS011;39172;45.550;12.072;2023-07-13T11:58:24;2.78;;;1.50;;
53287;SDS011;39172;45.550;12.072;2023-07-13T12:04:29;2.85;;;1.50;;
53287;SDS011;39172;45.550;12.072;2023-07-13T12:10:31;3.17;;;1.67;;
53287;SDS011;39172;45.550;12.072;2023-07-13T12:16:35;4.25;;;2.00;;
53287;SDS011;39172;45.550;12.072;2023-07-13T12:22:36;9.38;;;3.60;;
53287;SDS011;39172;45.550;12.072;2023-07-13T12:34:51;5.50;;;2.57;;
53287;SDS011;39172;45.550;12.072;2023-07-13T12:40:52;5.88;;;2.67;;
53287;SDS011;39172;45.550;12.072;2023-07-13T12:46:54;4.30;;;2.83;;
53287;SDS011;39172;45.550;12.072;2023-07-13T12:52:56;5.65;;;3.00;;
53287;SDS011;39172;45.550;12.072;2023-07-13T12:59:02;3.78;;;3.05;;
53287;SDS011;39172;45.550;12.072;2023-07-13T13:05:04;4.72;;;3.13;;
53287;SDS011;39172;45.550;12.072;2023-07-13T13:11:05;6.22;;;3.38;;
53287;SDS011;39172;45.550;12.072;2023-07-13T13:17:29;4.45;;;3.00;;
53287;SDS011;39172;45.550;12.072;2023-07-13T13:23:28;5.90;;;3.60;;
53287;SDS011;39172;45.550;12.072;2023-07-13T13:29:31;5.13;;;3.22;;
53287;SDS011;39172;45.550;12.072;2023-07-13T13:35:32;6.40;;;3.78;;
53287;SDS011;39172;45.550;12.072;2023-07-13T13:41:33;4.53;;;3.50;;
53287;SDS011;39172;45.550;12.072;2023-07-13T13:47:34;3.85;;;3.33;;
53287;SDS011;39172;45.550;12.072;2023-07-13T13:53:36;5.22;;;3.20;;
53287;SDS011;39172;45.550;12.072;2023-07-13T13:59:38;5.70;;;3.47;;
53287;SDS011;39172;45.550;12.072;2023-07-13T14:05:40;4.82;;;3.60;;
53287;SDS011;39172;45.550;12.072;2023-07-13T14:11:41;6.93;;;5.20;;
53287;SDS011;39172;45.550;12.072;2023-07-13T14:17:45;8.20;;;5.82;;
53287;SDS011;39172;45.550;12.072;2023-07-13T14:23:46;6.93;;;4.30;;
53287;SDS011;39172;45.550;12.072;2023-07-13T14:29:48;4.93;;;4.00;;
53287;SDS011;39172;45.550;12.072;2023-07-13T14:35:50;4.45;;;3.60;;
53287;SDS011;39172;45.550;12.072;2023-07-13T14:48:23;5.03;;;3.38;;
53287;SDS011;39172;45.550;12.072;2023-07-13T14:54:25;4.30;;;3.30;;
53287;SDS011;39172;45.550;12.072;2023-07-13T15:00:26;6.45;;;3.28;;
53287;SDS011;39172;45.550;12.072;2023-07-13T15:06:28;4.65;;;3.40;;
53287;SDS011;39172;45.550;12.072;2023-07-13T15:12:29;4.20;;;3.60;;
53287;SDS011;39172;45.550;12.072;2023-07-13T15:18:30;7.20;;;3.75;;
53287;SDS011;39172;45.550;12.072;2023-07-13T15:24:31;4.90;;;3.20;;
53287;SDS011;39172;45.550;12.072;2023-07-13T15:30:38;4.47;;;3.13;;
53287;SDS011;39172;45.550;12.072;2023-07-13T15:36:39;6.28;;;3.40;;
53287;SDS011;39172;45.550;12.072;2023-07-13T15:42:41;5.53;;;3.20;;
53287;SDS011;39172;45.550;12.072;2023-07-13T15:48:42;7.28;;;3.35;;
53287;SDS011;39172;45.550;12.072;2023-07-13T15:54:43;6.68;;;2.90;;
53287;SDS011;39172;45.550;12.072;2023-07-13T16:00:44;4.82;;;2.60;;
53287;SDS011;39172;45.550;12.072;2023-07-13T16:06:45;3.20;;;2.00;;
53287;SDS011;39172;45.550;12.072;2023-07-13T16:12:46;2.33;;;1.70;;
53287;SDS011;39172;45.550;12.072;2023-07-13T16:18:48;3.45;;;2.08;;
53287;SDS011;39172;45.550;12.072;2023-07-13T16:24:49;2.22;;;1.60;;
53287;SDS011;39172;45.550;12.072;2023-07-13T16:30:50;3.17;;;1.98;;
53287;SDS011;39172;45.550;12.072;2023-07-13T16:36:51;3.25;;;1.60;;
53287;SDS011;39172;45.550;12.072;2023-07-13T16:42:54;5.05;;;2.22;;
53287;SDS011;39172;45.550;12.072;2023-07-13T16:48:55;3.78;;;2.10;;
53287;SDS011;39172;45.550;12.072;2023-07-13T16:54:56;4.90;;;1.98;;
53287;SDS011;39172;45.550;12.072;2023-07-13T17:00:58;3.08;;;1.48;;
53287;SDS011;39172;45.550;12.072;2023-07-13T17:06:59;3.65;;;1.50;;
53287;SDS011;39172;45.550;12.072;2023-07-13T17:13:00;3.17;;;1.77;;
53287;SDS011;39172;45.550;12.072;2023-07-13T17:19:01;2.47;;;1.50;;
53287;SDS011;39172;45.550;12.072;2023-07-13T17:25:04;2.47;;;1.52;;
53287;SDS011;39172;45.550;12.072;2023-07-13T17:31:16;3.05;;;1.77;;
53287;SDS011;39172;45.550;12.072;2023-07-13T17:37:18;2.47;;;1.42;;
53287;SDS011;39172;45.550;12.072;2023-07-13T17:43:20;1.33;;;1.00;;
53287;SDS011;39172;45.550;12.072;2023-07-13T17:49:22;1.85;;;1.23;;
53287;SDS011;39172;45.550;12.072;2023-07-13T17:55:31;1.33;;;1.00;;
53287;SDS011;39172;45.550;12.072;2023-07-13T18:01:34;1.55;;;1.00;;
53287;SDS011;39172;45.550;12.072;2023-07-13T18:07:36;0.98;;;0.80;;
53287;SDS011;39172;45.550;12.072;2023-07-13T18:13:37;1.15;;;0.90;;
53287;SDS011;39172;45.550;12.072;2023-07-13T18:19:41;1.55;;;1.15;;
53287;SDS011;39172;45.550;12.072;2023-07-13T18:25:43;1.48;;;1.10;;
53287;SDS011;39172;45.550;12.072;2023-07-13T18:31:45;1.52;;;1.10;;
53287;SDS011;39172;45.550;12.072;2023-07-13T18:37:47;4.55;;;3.05;;
53287;SDS011;39172;45.550;12.072;2023-07-13T18:43:48;3.35;;;2.53;;
53287;SDS011;39172;45.550;12.072;2023-07-13T18:49:50;4.78;;;2.80;;
53287;SDS011;39172;45.550;12.072;2023-07-13T18:55:55;5.13;;;3.40;;
53287;SDS011;39172;45.550;12.072;2023-07-13T19:01:56;3.53;;;2.38;;
53287;SDS011;39172;45.550;12.072;2023-07-13T19:07:57;4.53;;;2.75;;
53287;SDS011;39172;45.550;12.072;2023-07-13T19:13:58;3.38;;;2.20;;
53287;SDS011;39172;45.550;12.072;2023-07-13T19:20:00;2.80;;;1.90;;
53287;SDS011;39172;45.550;12.072;2023-07-13T19:26:43;4.00;;;2.58;;
53287;SDS011;39172;45.550;12.072;2023-07-13T19:32:25;4.18;;;2.20;;
53287;SDS011;39172;45.550;12.072;2023-07-13T19:38:26;4.45;;;2.25;;
53287;SDS011;39172;45.550;12.072;2023-07-13T19:44:27;2.78;;;2.00;;
53287;SDS011;39172;45.550;12.072;2023-07-13T19:50:29;4.45;;;2.50;;
53287;SDS011;39172;45.550;12.072;2023-07-13T19:56:30;4.97;;;2.60;;
53287;SDS011;39172;45.550;12.072;2023-07-13T20:02:31;3.95;;;2.72;;
53287;SDS011;39172;45.550;12.072;2023-07-13T20:08:32;5.10;;;2.72;;
53287;SDS011;39172;45.550;12.072;2023-07-13T20:14:33;3.85;;;2.40;;
53287;SDS011;39172;45.550;12.072;2023-07-13T20:20:34;6.25;;;3.00;;
53287;SDS011;39172;45.550;12.072;2023-07-13T20:26:39;6.13;;;3.13;;
53287;SDS011;39172;45.550;12.072;2023-07-13T20:32:40;3.47;;;2.50;;
53287;SDS011;39172;45.550;12.072;2023-07-13T20:38:41;3.17;;;2.47;;
53287;SDS011;39172;45.550;12.072;2023-07-13T20:44:42;3.65;;;2.60;;
53287;SDS011;39172;45.550;12.072;2023-07-13T20:50:49;3.30;;;2.30;;
53287;SDS011;39172;45.550;12.072;2023-07-13T20:56:50;2.42;;;1.80;;
53287;SDS011;39172;45.550;12.072;2023-07-13T21:02:54;1.60;;;1.50;;
53287;SDS011;39172;45.550;12.072;2023-07-13T21:08:57;2.90;;;1.98;;
53287;SDS011;39172;45.550;12.072;2023-07-13T21:14:58;2.25;;;1.90;;
53287;SDS011;39172;45.550;12.072;2023-07-13T21:20:59;3.58;;;2.08;;
53287;SDS011;39172;45.550;12.072;2023-07-13T21:27:00;2.78;;;1.90;;
53287;SDS011;39172;45.550;12.072;2023-07-13T21:33:03;3.10;;;2.08;;
53287;SDS011;39172;45.550;12.072;2023-07-13T21:39:04;4.07;;;2.20;;
53287;SDS011;39172;45.550;12.072;2023-07-13T21:45:28;2.92;;;2.00;;
53287;SDS011;39172;45.550;12.072;2023-07-13T21:51:28;3.55;;;1.90;;
53287;SDS011;39172;45.550;12.072;2023-07-13T21:57:29;2.97;;;1.95;;
53287;SDS011;39172;45.550;12.072;2023-07-13T22:03:32;2.63;;;1.90;;
53287;SDS011;39172;45.550;12.072;2023-07-13T22:09:34;3.25;;;1.90;;
53287;SDS011;39172;45.550;12.072;2023-07-13T22:15:35;3.85;;;2.10;;
53287;SDS011;39172;45.550;12.072;2023-07-13T22:21:36;4.25;;;2.40;;
53287;SDS011;39172;45.550;12.072;2023-07-13T22:27:37;3.60;;;1.90;;
53287;SDS011;39172;45.550;12.072;2023-07-13T22:33:38;3.80;;;2.10;;
53287;SDS011;39172;45.550;12.072;2023-07-13T22:39:39;3.22;;;2.00;;
53287;SDS011;39172;45.550;12.072;2023-07-13T22:45:40;4.03;;;2.60;;
53287;SDS011;39172;45.550;12.072;2023-07-13T22:51:41;3.72;;;2.35;;
53287;SDS011;39172;45.550;12.072;2023-07-13T22:57:42;3.80;;;2.30;;
53287;SDS011;39172;45.550;12.072;2023-07-13T23:03:49;3.53;;;2.35;;
53287;SDS011;39172;45.550;12.072;2023-07-13T23:09:50;3.10;;;2.20;;
53287;SDS011;39172;45.550;12.072;2023-07-13T23:15:51;3.55;;;2.60;;
53287;SDS011;39172;45.550;12.072;2023-07-13T23:21:52;4.65;;;2.50;;
53287;SDS011;39172;45.550;12.072;2023-07-13T23:27:54;5.03;;;2.40;;
53287;SDS011;39172;45.550;12.072;2023-07-13T23:33:56;3.78;;;2.58;;
53287;SDS011;39172;45.550;12.072;2023-07-13T23:39:58;4.10;;;2.70;;
53287;SDS011;39172;45.550;12.072;2023-07-13T23:45:58;3.08;;;2.10;;
53287;SDS011;39172;45.550;12.072;2023-07-13T23:52:02;3.55;;;2.40;;
53287;SDS011;39172;45.550;12.072;2023-07-13T23:58:03;3.25;;;2.00;;
